Time;durP1;ratioP1;P1;durP2;ratioP2;P2;SDS_P1;SDS_P2;PMS_P1;PMS_P2;Temp;Humidity;BMP_temperature;BMP_pressure;BME280_temperature;BME280_humidity;BME280_pressure;Samples;Min_cycle;Max_cycle;Signal;HPM_P1;HPM_P2
2023/03/14 00:00:36;;;;;;;21.00;5.20;;;;;;;;;;5049893;28;20037;-61
2023/03/14 00:03:02;;;;;;;23.60;5.00;;;;;;;;;;5049307;28;20033;-61
2023/03/14 00:05:28;;;;;;;23.07;5.03;;;;;;;;;;5047576;28;20053;-61
2023/03/14 00:07:54;;;;;;;28.97;5.00;;;;;;;;;;5049600;28;20045;-61
2023/03/14 00:10:20;;;;;;;23.70;5.70;;;;;;;;;;5039848;28;20329;-61
2023/03/14 00:12:47;;;;;;;25.90;4.67;;;;;;;;;;5042079;28;20044;-61
2023/03/14 00:15:13;;;;;;;32.13;5.20;;;;;;;;;;5040688;28;20037;-61
2023/03/14 00:17:39;;;;;;;20.27;4.27;;;;;;;;;;5043442;28;20049;-61
2023/03/14 00:20:10;;;;;;;20.73;5.03;;;;;;;;;;5044920;28;20176;-61
2023/03/14 00:22:37;;;;;;;24.07;5.77;;;;;;;;;;5045589;28;20056;-61
2023/03/14 00:25:03;;;;;;;29.10;5.10;;;;;;;;;;5047262;28;20044;-61
2023/03/14 00:27:30;;;;;;;21.23;5.53;;;;;;;;;;5044376;28;20449;-61
2023/03/14 00:29:56;;;;;;;20.43;5.10;;;;;;;;;;5048123;28;20037;-61
2023/03/14 00:32:22;;;;;;;23.10;5.30;;;;;;;;;;5049633;28;20073;-61
2023/03/14 00:34:48;;;;;;;19.90;5.70;;;;;;;;;;5048613;28;20708;-61
2023/03/14 00:37:14;;;;;;;22.13;5.13;;;;;;;;;;5047565;28;20040;-62
2023/03/14 00:39:40;;;;;;;25.87;5.50;;;;;;;;;;5044805;28;20048;-61
2023/03/14 00:42:06;;;;;;;23.17;5.40;;;;;;;;;;5041652;28;20056;-61
2023/03/14 00:44:32;;;;;;;23.60;5.87;;;;;;;;;;5047610;28;20045;-61
2023/03/14 00:46:59;;;;;;;24.27;5.67;;;;;;;;;;5045680;28;20041;-60
2023/03/14 00:49:25;;;;;;;22.10;6.87;;;;;;;;;;5049490;28;20041;-61
2023/03/14 00:51:51;;;;;;;22.37;6.17;;;;;;;;;;5043857;28;20533;-61
2023/03/14 00:54:18;;;;;;;18.83;6.77;;;;;;;;;;5048924;28;20119;-61
2023/03/14 00:56:44;;;;;;;22.67;6.27;;;;;;;;;;5037920;28;20042;-61
2023/03/14 00:59:10;;;;;;;21.63;5.73;;;;;;;;;;5038282;28;20076;-61
2023/03/14 01:01:36;;;;;;;21.83;5.77;;;;;;;;;;5045345;28;20052;-61
2023/03/14 01:04:02;;;;;;;16.37;5.50;;;;;;;;;;5040320;28;20038;-61
2023/03/14 01:06:30;;;;;;;23.67;5.90;;;;;;;;;;5039768;28;20053;-61
2023/03/14 01:08:56;;;;;;;15.37;4.43;;;;;;;;;;5041523;28;20099;-61
2023/03/14 01:11:23;;;;;;;19.83;5.00;;;;;;;;;;5039216;28;20515;-61
2023/03/14 01:13:50;;;;;;;15.73;4.43;;;;;;;;;;5037882;28;20046;-61
2023/03/14 01:16:16;;;;;;;24.63;5.53;;;;;;;;;;5038860;28;20045;-61
2023/03/14 01:18:43;;;;;;;19.10;5.30;;;;;;;;;;5038903;28;20041;-61
2023/03/14 01:21:17;;;;;;;15.90;4.63;;;;;;;;;;5037459;28;20090;-61
2023/03/14 01:23:43;;;;;;;17.30;5.47;;;;;;;;;;5037965;28;20077;-61
2023/03/14 01:26:11;;;;;;;20.07;4.80;;;;;;;;;;5044228;28;20049;-60
2023/03/14 01:28:37;;;;;;;16.63;4.37;;;;;;;;;;5040130;28;20116;-61
2023/03/14 01:31:04;;;;;;;22.20;4.30;;;;;;;;;;5043851;28;20497;-61
2023/03/14 01:33:30;;;;;;;18.40;4.43;;;;;;;;;;5043899;28;20045;-61
2023/03/14 01:35:56;;;;;;;18.83;4.70;;;;;;;;;;5043537;28;20041;-61
2023/03/14 01:38:22;;;;;;;19.43;4.60;;;;;;;;;;5039683;28;20054;-61
2023/03/14 01:40:48;;;;;;;18.67;4.90;;;;;;;;;;5042373;28;20044;-61
2023/03/14 01:43:16;;;;;;;26.77;5.40;;;;;;;;;;5043770;28;20056;-61
2023/03/14 01:46:00;;;;;;;19.60;4.07;;;;;;;;;;5037892;28;20041;-61
2023/03/14 01:48:28;;;;;;;18.57;4.23;;;;;;;;;;5040303;28;20045;-61
2023/03/14 01:50:54;;;;;;;16.47;4.07;;;;;;;;;;5041832;28;20040;-61
2023/03/14 01:53:21;;;;;;;27.30;5.90;;;;;;;;;;5043460;28;20049;-61
2023/03/14 01:55:50;;;;;;;23.17;4.73;;;;;;;;;;5038330;28;20128;-61
2023/03/14 01:58:17;;;;;;;22.80;5.70;;;;;;;;;;5040999;28;20040;-61
2023/03/14 02:00:43;;;;;;;13.90;4.23;;;;;;;;;;5039886;28;20526;-61
2023/03/14 02:03:11;;;;;;;28.43;5.43;;;;;;;;;;5039720;28;20061;-61
2023/03/14 02:05:39;;;;;;;22.77;5.30;;;;;;;;;;5040824;28;20467;-61
2023/03/14 02:08:07;;;;;;;24.30;4.30;;;;;;;;;;5040377;28;20046;-61
2023/03/14 02:10:36;;;;;;;19.77;4.93;;;;;;;;;;5043198;28;20037;-61
2023/03/14 02:13:03;;;;;;;20.27;5.10;;;;;;;;;;5038298;28;20091;-61
2023/03/14 02:15:30;;;;;;;18.87;4.87;;;;;;;;;;5041039;28;20084;-61
2023/03/14 02:17:57;;;;;;;24.67;5.10;;;;;;;;;;5040749;28;20423;-61
2023/03/14 02:20:42;;;;;;;19.27;4.53;;;;;;;;;;5039092;28;20037;-62
2023/03/14 02:23:08;;;;;;;20.97;4.47;;;;;;;;;;5038911;28;20055;-62
2023/03/14 02:25:34;;;;;;;21.57;5.00;;;;;;;;;;5037098;28;20044;-62
2023/03/14 02:28:01;;;;;;;21.57;6.73;;;;;;;;;;5038576;28;20048;-62
2023/03/14 02:30:28;;;;;;;15.80;4.70;;;;;;;;;;5040337;28;20403;-61
2023/03/14 02:33:13;;;;;;;20.70;4.57;;;;;;;;;;5043540;28;20048;-62
2023/03/14 02:35:44;;;;;;;19.37;4.97;;;;;;;;;;5041069;28;20129;-62
2023/03/14 02:38:10;;;;;;;20.00;4.53;;;;;;;;;;5041898;28;20453;-62
2023/03/14 02:40:36;;;;;;;17.17;4.87;;;;;;;;;;5042877;28;20049;-62
2023/03/14 02:43:02;;;;;;;22.60;4.83;;;;;;;;;;5039495;28;20048;-62
2023/03/14 02:45:37;;;;;;;17.17;5.27;;;;;;;;;;5042181;28;20059;-62
2023/03/14 02:48:06;;;;;;;15.27;4.53;;;;;;;;;;5046808;28;20041;-62
2023/03/14 02:50:34;;;;;;;16.40;4.60;;;;;;;;;;5042860;28;20499;-62
2023/03/14 02:53:00;;;;;;;17.03;4.67;;;;;;;;;;5047477;28;20818;-62
2023/03/14 02:55:26;;;;;;;17.17;4.47;;;;;;;;;;5045804;28;20041;-62
2023/03/14 02:57:53;;;;;;;19.70;5.10;;;;;;;;;;5045351;28;20041;-62
2023/03/14 03:00:19;;;;;;;14.43;4.50;;;;;;;;;;5044767;28;20041;-62
2023/03/14 03:02:46;;;;;;;19.03;5.60;;;;;;;;;;5043589;28;20068;-62
2023/03/14 03:05:12;;;;;;;13.17;5.17;;;;;;;;;;5046250;28;20052;-62
2023/03/14 03:07:38;;;;;;;14.67;4.07;;;;;;;;;;5041509;28;20075;-62
2023/03/14 03:10:04;;;;;;;16.67;4.80;;;;;;;;;;5044270;28;20082;-62
2023/03/14 03:12:30;;;;;;;14.90;4.43;;;;;;;;;;5044394;28;20120;-62
2023/03/14 03:14:56;;;;;;;16.60;5.47;;;;;;;;;;5045875;28;20542;-63
2023/03/14 03:17:22;;;;;;;18.13;4.93;;;;;;;;;;5049593;28;20095;-62
2023/03/14 03:19:48;;;;;;;17.90;5.67;;;;;;;;;;5050067;28;20499;-60
2023/03/14 03:22:14;;;;;;;15.80;4.50;;;;;;;;;;5051286;28;20037;-62
2023/03/14 03:24:41;;;;;;;20.20;5.67;;;;;;;;;;5049934;28;20045;-62
2023/03/14 03:27:06;;;;;;;21.27;6.20;;;;;;;;;;5051014;28;20052;-62
2023/03/14 03:29:32;;;;;;;18.40;5.20;;;;;;;;;;5051351;28;20049;-62
2023/03/14 03:31:58;;;;;;;14.67;5.60;;;;;;;;;;5050097;28;20044;-62
2023/03/14 03:34:24;;;;;;;14.63;4.63;;;;;;;;;;5050987;28;20468;-62
2023/03/14 03:36:50;;;;;;;16.70;5.03;;;;;;;;;;5050458;28;20098;-62
2023/03/14 03:39:16;;;;;;;14.40;5.10;;;;;;;;;;5049752;28;20091;-62
2023/03/14 03:41:43;;;;;;;16.27;4.93;;;;;;;;;;5050287;28;20056;-63
2023/03/14 03:44:09;;;;;;;22.00;5.27;;;;;;;;;;5049779;28;20056;-62
2023/03/14 03:46:35;;;;;;;26.67;6.10;;;;;;;;;;5049542;28;20091;-62
2023/03/14 03:49:01;;;;;;;21.03;4.50;;;;;;;;;;5050415;28;20045;-62
2023/03/14 03:51:27;;;;;;;22.97;4.73;;;;;;;;;;5050097;28;20049;-62
2023/03/14 03:53:53;;;;;;;16.93;4.50;;;;;;;;;;5050176;28;20052;-62
2023/03/14 03:56:19;;;;;;;23.07;4.47;;;;;;;;;;5050772;28;20037;-62
2023/03/14 03:58:45;;;;;;;19.00;4.60;;;;;;;;;;5049882;28;20094;-62
2023/03/14 04:01:11;;;;;;;16.83;4.03;;;;;;;;;;5047613;28;20041;-62
2023/03/14 04:03:40;;;;;;;20.40;5.90;;;;;;;;;;5050901;28;20087;-62
2023/03/14 04:06:08;;;;;;;16.27;5.70;;;;;;;;;;5050223;28;20098;-62
2023/03/14 04:08:34;;;;;;;16.37;5.33;;;;;;;;;;5050127;28;20045;-62
2023/03/14 04:11:01;;;;;;;19.50;5.43;;;;;;;;;;5048525;28;20053;-62
2023/03/14 04:13:27;;;;;;;21.07;5.53;;;;;;;;;;5050419;28;20044;-62
2023/03/14 04:15:54;;;;;;;17.30;5.77;;;;;;;;;;5050503;28;20499;-62
2023/03/14 04:18:20;;;;;;;18.60;6.00;;;;;;;;;;5049596;28;20053;-62
2023/03/14 04:20:50;;;;;;;15.80;5.83;;;;;;;;;;5050411;28;20033;-63
2023/03/14 04:23:16;;;;;;;25.87;6.70;;;;;;;;;;5050671;28;20384;-63
2023/03/14 04:25:42;;;;;;;22.10;8.27;;;;;;;;;;5049996;28;20546;-63
2023/03/14 04:28:08;;;;;;;22.00;7.73;;;;;;;;;;5049364;28;20152;-63
2023/03/14 04:30:34;;;;;;;20.53;6.20;;;;;;;;;;5049347;28;20041;-63
2023/03/14 04:33:01;;;;;;;18.07;7.03;;;;;;;;;;5049782;28;20059;-63
2023/03/14 04:35:27;;;;;;;18.03;7.23;;;;;;;;;;5050339;28;20055;-63
2023/03/14 04:37:53;;;;;;;18.77;6.60;;;;;;;;;;5049658;28;20400;-63
2023/03/14 04:40:19;;;;;;;15.53;6.67;;;;;;;;;;5050078;28;20037;-63
2023/03/14 04:42:45;;;;;;;16.83;6.97;;;;;;;;;;5049649;28;20052;-63
2023/03/14 04:45:11;;;;;;;15.87;6.33;;;;;;;;;;5049614;28;20037;-64
2023/03/14 04:47:37;;;;;;;17.77;6.83;;;;;;;;;;5049993;28;20450;-64
2023/03/14 04:50:03;;;;;;;18.23;6.77;;;;;;;;;;5049012;28;20135;-64
2023/03/14 04:52:29;;;;;;;14.13;6.33;;;;;;;;;;5049393;28;20045;-63
2023/03/14 04:54:55;;;;;;;18.57;7.53;;;;;;;;;;5049593;28;20055;-63
2023/03/14 04:57:21;;;;;;;16.50;5.30;;;;;;;;;;5047828;28;20045;-63
2023/03/14 04:59:47;;;;;;;16.10;6.23;;;;;;;;;;5049817;28;20041;-63
2023/03/14 05:02:13;;;;;;;15.33;5.70;;;;;;;;;;5049700;28;20052;-63
2023/03/14 05:04:39;;;;;;;18.13;5.93;;;;;;;;;;5049487;28;20115;-63
2023/03/14 05:07:05;;;;;;;17.47;5.10;;;;;;;;;;5049057;28;20041;-63
2023/03/14 05:09:31;;;;;;;19.20;6.10;;;;;;;;;;5049207;28;20053;-63
2023/03/14 05:11:57;;;;;;;18.83;5.77;;;;;;;;;;5049248;28;20045;-63
2023/03/14 05:14:23;;;;;;;17.40;6.13;;;;;;;;;;5048827;28;20090;-63
2023/03/14 05:16:49;;;;;;;15.10;5.30;;;;;;;;;;5049082;28;20403;-63
2023/03/14 05:19:15;;;;;;;23.90;6.17;;;;;;;;;;5048214;28;20032;-63
2023/03/14 05:21:41;;;;;;;24.47;5.77;;;;;;;;;;5048916;28;20604;-64
2023/03/14 05:24:07;;;;;;;17.47;5.90;;;;;;;;;;5048870;28;20415;-63
2023/03/14 05:26:33;;;;;;;14.27;6.03;;;;;;;;;;5048606;28;20053;-63
2023/03/14 05:28:59;;;;;;;16.07;6.23;;;;;;;;;;5048027;28;20499;-64
2023/03/14 05:31:25;;;;;;;17.90;6.30;;;;;;;;;;5048212;28;20086;-64
2023/03/14 05:33:51;;;;;;;20.57;5.93;;;;;;;;;;5047021;28;20045;-64
2023/03/14 05:36:17;;;;;;;16.53;5.50;;;;;;;;;;5048170;28;20044;-64
2023/03/14 05:38:43;;;;;;;19.50;5.97;;;;;;;;;;5048817;28;20051;-65
2023/03/14 05:41:09;;;;;;;22.00;6.40;;;;;;;;;;5048798;28;20052;-66
2023/03/14 05:43:35;;;;;;;26.57;7.03;;;;;;;;;;5048714;28;20040;-66
2023/03/14 05:46:01;;;;;;;23.83;7.23;;;;;;;;;;5046644;28;20041;-66
2023/03/14 05:48:27;;;;;;;20.00;7.43;;;;;;;;;;5048778;28;20045;-65
2023/03/14 05:50:57;;;;;;;17.83;6.90;;;;;;;;;;5048651;28;20182;-65
2023/03/14 05:53:23;;;;;;;25.50;7.50;;;;;;;;;;5048710;28;20037;-65
2023/03/14 05:55:51;;;;;;;25.27;7.33;;;;;;;;;;5047228;28;20051;-65
2023/03/14 05:58:17;;;;;;;28.20;7.90;;;;;;;;;;5041629;28;20041;-65
2023/03/14 06:00:43;;;;;;;24.87;6.43;;;;;;;;;;5048584;28;20045;-65
2023/03/14 06:03:09;;;;;;;29.03;7.83;;;;;;;;;;5048448;28;20492;-65
2023/03/14 06:05:35;;;;;;;25.53;6.60;;;;;;;;;;5048187;28;20056;-65
2023/03/14 06:08:01;;;;;;;23.97;7.40;;;;;;;;;;5046915;28;20068;-65
2023/03/14 06:10:27;;;;;;;27.60;7.03;;;;;;;;;;5050991;28;20773;-65
2023/03/14 06:12:53;;;;;;;20.13;8.40;;;;;;;;;;5052948;28;20041;-65
2023/03/14 06:15:20;;;;;;;25.33;8.93;;;;;;;;;;5052763;28;20044;-65
2023/03/14 06:17:46;;;;;;;38.50;8.43;;;;;;;;;;5051990;28;20462;-66
2023/03/14 06:20:12;;;;;;;28.87;8.63;;;;;;;;;;5051911;28;20044;-66
2023/03/14 06:22:39;;;;;;;40.27;9.43;;;;;;;;;;5052225;28;20084;-67
2023/03/14 06:25:05;;;;;;;34.10;9.07;;;;;;;;;;5048337;28;20418;-66
2023/03/14 06:27:31;;;;;;;27.50;8.63;;;;;;;;;;5051762;28;20053;-66
2023/03/14 06:29:57;;;;;;;26.17;8.50;;;;;;;;;;5049758;28;20049;-66
2023/03/14 06:32:23;;;;;;;33.73;9.20;;;;;;;;;;5046254;28;20037;-65
2023/03/14 06:34:49;;;;;;;38.97;10.63;;;;;;;;;;5040153;28;20099;-66
2023/03/14 06:37:15;;;;;;;23.47;7.33;;;;;;;;;;5041066;28;20594;-67
2023/03/14 06:39:43;;;;;;;18.10;5.63;;;;;;;;;;5042776;28;20037;-66
2023/03/14 06:42:09;;;;;;;17.73;6.90;;;;;;;;;;5040714;28;20085;-66
2023/03/14 06:44:35;;;;;;;15.90;5.50;;;;;;;;;;5051626;28;20052;-66
2023/03/14 06:47:01;;;;;;;17.80;6.50;;;;;;;;;;5051271;28;20049;-66
2023/03/14 06:49:27;;;;;;;17.50;6.17;;;;;;;;;;5033266;28;20068;-66
2023/03/14 06:51:54;;;;;;;17.90;7.53;;;;;;;;;;5043179;28;20042;-65
2023/03/14 06:54:20;;;;;;;18.03;7.00;;;;;;;;;;5041681;28;20156;-66
2023/03/14 06:56:45;;;;;;;24.23;8.30;;;;;;;;;;5041699;28;20076;-65
2023/03/14 06:59:11;;;;;;;21.90;8.33;;;;;;;;;;5040721;28;20107;-66
2023/03/14 07:01:37;;;;;;;25.40;9.33;;;;;;;;;;5051205;28;20045;-66
2023/03/14 07:04:04;;;;;;;22.10;8.07;;;;;;;;;;5050519;28;20051;-66
2023/03/14 07:06:30;;;;;;;25.70;7.70;;;;;;;;;;5051462;28;20087;-66
2023/03/14 07:08:56;;;;;;;12.80;5.40;;;;;;;;;;5051072;28;20044;-66
2023/03/14 07:11:23;;;;;;;8.23;2.90;;;;;;;;;;5051615;28;20399;-66
2023/03/14 07:13:49;;;;;;;11.47;3.77;;;;;;;;;;5050665;28;20047;-65
2023/03/14 07:16:15;;;;;;;8.90;3.50;;;;;;;;;;5046042;28;20045;-64
2023/03/14 07:18:41;;;;;;;11.33;3.40;;;;;;;;;;5046924;28;20140;-65
2023/03/14 07:21:08;;;;;;;10.63;3.00;;;;;;;;;;5049720;28;20123;-66
2023/03/14 07:23:35;;;;;;;30.97;5.93;;;;;;;;;;5049901;28;20116;-64
2023/03/14 07:26:01;;;;;;;11.37;3.03;;;;;;;;;;5051408;28;20091;-64
2023/03/14 07:28:27;;;;;;;10.90;3.70;;;;;;;;;;5049821;28;20518;-64
2023/03/14 07:30:54;;;;;;;30.97;5.80;;;;;;;;;;5048050;28;20037;-65
2023/03/14 07:33:20;;;;;;;23.83;5.03;;;;;;;;;;5040770;28;20139;-66
2023/03/14 07:35:49;;;;;;;35.50;5.03;;;;;;;;;;5041093;28;20124;-66
2023/03/14 07:38:16;;;;;;;13.77;3.60;;;;;;;;;;5043462;28;20486;-66
2023/03/14 07:40:42;;;;;;;28.47;3.27;;;;;;;;;;5040735;28;20060;-67
2023/03/14 07:43:08;;;;;;;19.43;1.90;;;;;;;;;;5049792;28;20057;-67
2023/03/14 07:45:34;;;;;;;9.03;1.30;;;;;;;;;;5050886;28;20041;-65
2023/03/14 07:48:01;;;;;;;14.87;1.37;;;;;;;;;;5046785;28;20605;-64
2023/03/14 07:50:28;;;;;;;9.83;1.43;;;;;;;;;;5050759;28;20048;-64
2023/03/14 07:52:54;;;;;;;6.50;1.30;;;;;;;;;;5051450;28;20045;-64
2023/03/14 07:55:20;;;;;;;7.73;1.20;;;;;;;;;;5049675;28;20053;-64
2023/03/14 07:57:47;;;;;;;12.80;1.53;;;;;;;;;;5050952;28;20041;-64
2023/03/14 08:00:14;;;;;;;9.30;1.20;;;;;;;;;;5050894;28;20047;-64
2023/03/14 08:02:40;;;;;;;14.10;1.57;;;;;;;;;;5050759;28;20645;-64
2023/03/14 08:05:07;;;;;;;11.20;1.50;;;;;;;;;;5050794;28;20040;-64
2023/03/14 08:07:33;;;;;;;14.00;1.93;;;;;;;;;;5050455;28;20163;-64
2023/03/14 08:09:59;;;;;;;3.20;0.67;;;;;;;;;;5048499;28;20048;-64
2023/03/14 08:12:25;;;;;;;8.27;0.70;;;;;;;;;;5050200;28;20045;-63
2023/03/14 08:14:51;;;;;;;4.13;0.77;;;;;;;;;;5050587;28;20178;-63
2023/03/14 08:17:17;;;;;;;4.43;0.83;;;;;;;;;;5050559;28;20127;-63
2023/03/14 08:19:43;;;;;;;3.80;0.60;;;;;;;;;;5049925;28;20052;-66
2023/03/14 08:22:09;;;;;;;5.73;1.17;;;;;;;;;;5049818;28;20045;-64
2023/03/14 08:24:35;;;;;;;4.60;0.63;;;;;;;;;;5048072;28;21428;-64
2023/03/14 08:27:01;;;;;;;6.50;0.80;;;;;;;;;;5049800;28;20048;-64
2023/03/14 08:29:27;;;;;;;6.20;0.73;;;;;;;;;;5050358;28;20521;-64
2023/03/14 08:31:54;;;;;;;6.60;0.90;;;;;;;;;;5048283;28;20045;-63
2023/03/14 08:34:20;;;;;;;4.80;0.80;;;;;;;;;;5047170;28;20045;-64
2023/03/14 08:36:46;;;;;;;6.00;1.03;;;;;;;;;;5050181;28;20099;-64
2023/03/14 08:39:12;;;;;;;3.93;0.90;;;;;;;;;;5065108;28;20052;-64
2023/03/14 08:41:41;;;;;;;11.30;0.97;;;;;;;;;;5069696;28;20040;-63
2023/03/14 08:44:11;;;;;;;5.67;1.43;;;;;;;;;;5069809;28;20414;-64
2023/03/14 08:46:37;;;;;;;7.70;1.23;;;;;;;;;;5053604;28;20131;-64
2023/03/14 08:49:03;;;;;;;7.50;0.93;;;;;;;;;;5048902;28;20119;-63
2023/03/14 08:51:29;;;;;;;6.53;0.70;;;;;;;;;;5046643;28;20053;-63
2023/03/14 08:53:55;;;;;;;7.10;0.97;;;;;;;;;;5040659;28;20044;-63
2023/03/14 08:56:21;;;;;;;6.83;1.10;;;;;;;;;;5041073;28;20047;-64
2023/03/14 08:58:47;;;;;;;12.03;1.23;;;;;;;;;;5036798;28;20037;-63
2023/03/14 09:01:13;;;;;;;7.13;1.27;;;;;;;;;;5038976;28;20471;-64
2023/03/14 09:03:39;;;;;;;12.47;1.50;;;;;;;;;;5039759;28;20035;-64
2023/03/14 09:06:06;;;;;;;12.83;2.33;;;;;;;;;;5038727;28;20553;-65
2023/03/14 09:08:33;;;;;;;6.20;1.23;;;;;;;;;;5040178;28;21228;-64
2023/03/14 09:10:59;;;;;;;8.47;1.20;;;;;;;;;;5040095;28;20045;-64
2023/03/14 09:13:25;;;;;;;13.10;1.80;;;;;;;;;;5041421;28;20594;-64
2023/03/14 09:15:55;;;;;;;13.83;2.27;;;;;;;;;;5043091;28;20033;-64
2023/03/14 09:18:22;;;;;;;6.03;1.20;;;;;;;;;;5042479;28;20049;-64
2023/03/14 09:20:48;;;;;;;7.00;1.33;;;;;;;;;;5042578;28;20656;-64
2023/03/14 09:23:15;;;;;;;12.23;2.53;;;;;;;;;;5039580;28;20043;-64
2023/03/14 09:25:41;;;;;;;14.90;2.67;;;;;;;;;;5038817;28;20104;-64
2023/03/14 09:28:07;;;;;;;14.97;1.57;;;;;;;;;;5037331;28;20481;-64
2023/03/14 09:30:34;;;;;;;9.17;1.27;;;;;;;;;;5046832;28;20064;-64
2023/03/14 09:33:00;;;;;;;14.87;2.03;;;;;;;;;;5047931;28;20106;-64
2023/03/14 09:35:26;;;;;;;11.07;1.97;;;;;;;;;;5047757;28;20522;-65
2023/03/14 09:37:52;;;;;;;12.57;1.73;;;;;;;;;;5047034;28;20049;-64
2023/03/14 09:40:19;;;;;;;13.30;1.50;;;;;;;;;;5047464;28;20423;-64
2023/03/14 09:42:46;;;;;;;24.90;3.93;;;;;;;;;;5047429;28;20052;-65
2023/03/14 09:45:32;;;;;;;10.90;3.07;;;;;;;;;;5046694;28;20416;-64
2023/03/14 09:47:58;;;;;;;15.63;2.23;;;;;;;;;;5038764;28;20074;-64
2023/03/14 09:50:25;;;;;;;17.33;2.10;;;;;;;;;;5047411;28;20041;-65
2023/03/14 09:52:57;;;;;;;25.00;3.50;;;;;;;;;;5041613;28;20514;-64
2023/03/14 09:55:23;;;;;;;20.63;2.80;;;;;;;;;;5038897;28;20046;-64
2023/03/14 09:57:50;;;;;;;22.23;2.83;;;;;;;;;;5041875;28;20134;-63
2023/03/14 10:00:17;;;;;;;16.00;2.83;;;;;;;;;;5039301;28;20034;-64
2023/03/14 10:02:46;;;;;;;15.07;3.20;;;;;;;;;;5041653;28;20154;-64
2023/03/14 10:05:17;;;;;;;19.03;3.03;;;;;;;;;;5043275;28;20053;-64
2023/03/14 10:07:43;;;;;;;16.67;2.60;;;;;;;;;;5040242;28;20055;-64
2023/03/14 10:10:14;;;;;;;18.33;3.17;;;;;;;;;;5040824;28;20038;-64
2023/03/14 10:12:41;;;;;;;20.90;3.37;;;;;;;;;;5038458;28;20055;-64
2023/03/14 10:15:09;;;;;;;28.10;4.27;;;;;;;;;;5041319;28;20120;-64
2023/03/14 10:17:42;;;;;;;21.53;3.40;;;;;;;;;;5039295;28;20033;-63
2023/03/14 10:20:32;;;;;;;24.25;4.28;;;;;;;;;;5038537;28;20144;-64
2023/03/14 10:22:59;;;;;;;24.40;3.50;;;;;;;;;;5038266;28;20041;-64
2023/03/14 10:25:27;;;;;;;23.53;2.73;;;;;;;;;;5040012;28;20033;-64
2023/03/14 10:27:53;;;;;;;23.13;4.07;;;;;;;;;;5038501;28;20063;-64
2023/03/14 10:30:29;;;;;;;20.33;3.47;;;;;;;;;;5038535;28;20048;-64
2023/03/14 10:32:55;;;;;;;32.17;4.87;;;;;;;;;;5041669;28;20045;-64
2023/03/14 10:35:22;;;;;;;28.70;4.87;;;;;;;;;;5044560;28;20068;-64
2023/03/14 10:37:50;;;;;;;25.50;3.53;;;;;;;;;;5045450;28;20080;-64
2023/03/14 10:40:18;;;;;;;30.13;5.43;;;;;;;;;;5040333;28;20041;-64
2023/03/14 10:42:47;;;;;;;31.27;4.00;;;;;;;;;;5046867;28;20045;-64
2023/03/14 10:45:32;;;;;;;28.23;3.67;;;;;;;;;;5047465;28;20137;-64
2023/03/14 10:48:19;;;;;;;26.47;3.80;;;;;;;;;;5047505;28;20472;-64
2023/03/14 10:51:03;;;;;;;35.97;4.30;;;;;;;;;;5046084;28;20052;-64
2023/03/14 10:53:38;;;;;;;34.30;5.13;;;;;;;;;;5042190;28;20116;-64
2023/03/14 10:56:05;;;;;;;37.77;4.20;;;;;;;;;;5037237;28;20099;-65
2023/03/14 10:58:33;;;;;;;26.43;5.00;;;;;;;;;;5048937;28;20407;-64
2023/03/14 11:01:05;;;;;;;27.83;4.63;;;;;;;;;;5050230;28;20037;-64
2023/03/14 11:03:32;;;;;;;14.37;3.30;;;;;;;;;;5047322;28;20040;-64
2023/03/14 11:05:58;;;;;;;27.30;4.23;;;;;;;;;;5047634;28;20046;-64
2023/03/14 11:08:24;;;;;;;18.87;4.07;;;;;;;;;;5047194;28;20114;-64
2023/03/14 11:10:55;;;;;;;23.20;3.37;;;;;;;;;;5047449;28;20088;-64
2023/03/14 11:13:28;;;;;;;19.77;3.87;;;;;;;;;;5064775;28;20419;-62
2023/03/14 11:16:12;;;;;;;18.55;3.17;;;;;;;;;;5050198;28;20148;-64
2023/03/14 11:18:47;;;;;;;20.97;3.23;;;;;;;;;;5051274;28;20179;-64
2023/03/14 11:21:19;;;;;;;20.40;3.80;;;;;;;;;;5048621;28;20041;-63
2023/03/14 11:23:58;;;;;;;16.73;2.73;;;;;;;;;;5043411;28;20056;-63
2023/03/14 11:26:30;;;;;;;17.53;2.70;;;;;;;;;;5042265;28;20056;-64
2023/03/14 11:28:58;;;;;;;16.10;3.10;;;;;;;;;;5040262;28;20057;-63
2023/03/14 11:31:29;;;;;;;18.53;4.03;;;;;;;;;;5047410;28;20939;-64
2023/03/14 11:34:13;;;;;;;17.27;3.07;;;;;;;;;;5050039;28;20060;-64
2023/03/14 11:36:46;;;;;;;11.73;2.33;;;;;;;;;;5049594;28;20056;-64
2023/03/14 11:39:14;;;;;;;16.42;2.88;;;;;;;;;;5042215;28;20041;-64
2023/03/14 11:41:42;;;;;;;10.67;2.13;;;;;;;;;;5029385;28;20598;-65
2023/03/14 11:44:19;;;;;;;17.43;3.27;;;;;;;;;;5028753;28;20060;-64
2023/03/14 11:47:05;;;;;;;11.13;2.30;;;;;;;;;;5028799;28;20057;-64
2023/03/14 11:49:35;;;;;;;11.53;2.90;;;;;;;;;;5044315;28;20045;-64
2023/03/14 11:52:13;;;;;;;15.47;2.83;;;;;;;;;;5048368;28;20080;-64
2023/03/14 11:54:50;;;;;;;12.80;3.00;;;;;;;;;;5049226;28;20069;-64
2023/03/14 11:57:18;;;;;;;12.27;2.70;;;;;;;;;;5048974;28;20049;-64
2023/03/14 11:59:57;;;;;;;11.43;1.97;;;;;;;;;;5049056;28;20048;-64
2023/03/14 12:02:34;;;;;;;12.77;2.57;;;;;;;;;;5049405;28;20048;-64
2023/03/14 12:05:09;;;;;;;9.27;2.13;;;;;;;;;;5050156;28;20053;-64
2023/03/14 12:07:40;;;;;;;13.93;2.43;;;;;;;;;;5048987;28;20493;-64
2023/03/14 12:10:06;;;;;;;10.50;2.03;;;;;;;;;;5050414;28;20048;-64
2023/03/14 12:12:33;;;;;;;19.60;2.37;;;;;;;;;;5049981;28;20041;-64
2023/03/14 12:15:00;;;;;;;8.57;1.77;;;;;;;;;;5049263;28;20139;-64
2023/03/14 12:17:40;;;;;;;7.10;1.40;;;;;;;;;;5050190;28;20052;-64
2023/03/14 12:20:15;;;;;;;5.50;1.17;;;;;;;;;;5050417;28;20041;-64
2023/03/14 12:22:54;;;;;;;6.13;1.27;;;;;;;;;;5050170;28;20090;-64
2023/03/14 12:25:21;;;;;;;7.83;1.60;;;;;;;;;;5050383;28;20052;-64
2023/03/14 12:27:48;;;;;;;6.63;1.33;;;;;;;;;;5049826;28;20143;-64
2023/03/14 12:30:32;;;;;;;6.43;1.70;;;;;;;;;;5049713;28;20776;-63
2023/03/14 12:32:58;;;;;;;;;;;;;;;;;;5050276;28;20053;-64
2023/03/14 12:35:34;;;;;;;4.87;1.20;;;;;;;;;;5050265;28;20819;-64
2023/03/14 12:38:02;;;;;;;10.77;1.27;;;;;;;;;;5049650;28;20433;-64
2023/03/14 12:40:35;;;;;;;7.43;1.40;;;;;;;;;;5048695;28;20442;-63
2023/03/14 12:43:03;;;;;;;6.23;1.33;;;;;;;;;;5049507;28;20041;-64
2023/03/14 12:45:34;;;;;;;6.70;1.70;;;;;;;;;;5049916;28;20047;-64
2023/03/14 12:48:22;;;;;;;7.03;1.33;;;;;;;;;;5049796;28;20095;-63
2023/03/14 12:50:56;;;;;;;4.27;1.60;;;;;;;;;;5049408;28;20182;-63
2023/03/14 12:53:23;;;;;;;7.43;1.83;;;;;;;;;;5049809;28;20128;-63
2023/03/14 12:56:01;;;;;;;8.73;1.67;;;;;;;;;;5049695;28;20132;-63
2023/03/14 12:58:33;;;;;;;8.40;1.60;;;;;;;;;;5049175;28;20139;-63
2023/03/14 13:01:07;;;;;;;5.57;1.20;;;;;;;;;;5049202;28;20041;-63
2023/03/14 13:03:53;;;;;;;9.17;1.60;;;;;;;;;;5049568;28;20525;-63
2023/03/14 13:06:38;;;;;;;9.33;1.70;;;;;;;;;;5049433;28;20056;-63
2023/03/14 13:09:22;;;;;;;9.27;2.03;;;;;;;;;;5049032;28;20036;-63
2023/03/14 13:11:49;;;;;;;9.50;1.70;;;;;;;;;;5048171;28;20049;-63
2023/03/14 13:14:14;;;;;;;8.13;1.77;;;;;;;;;;5049033;28;20049;-63
2023/03/14 13:16:41;;;;;;;12.47;1.83;;;;;;;;;;5048015;28;20111;-62
2023/03/14 13:19:16;;;;;;;11.90;1.50;;;;;;;;;;5048398;28;20468;-62
2023/03/14 13:21:42;;;;;;;12.33;2.00;;;;;;;;;;5049002;28;20048;-63
2023/03/14 13:24:21;;;;;;;5.80;1.47;;;;;;;;;;5048479;28;20522;-62
2023/03/14 13:26:47;;;;;;;8.47;2.07;;;;;;;;;;5046082;28;20045;-62
2023/03/14 13:29:24;;;;;;;7.63;1.73;;;;;;;;;;5048327;28;20037;-63
2023/03/14 13:31:51;;;;;;;7.30;1.60;;;;;;;;;;5045632;28;20037;-60
2023/03/14 13:34:17;;;;;;;7.23;1.63;;;;;;;;;;5042010;28;20049;-60
2023/03/14 13:36:44;;;;;;;14.53;3.37;;;;;;;;;;5057356;28;20115;-61
2023/03/14 13:39:14;;;;;;;6.43;1.60;;;;;;;;;;5037091;28;20041;-61
2023/03/14 13:41:41;;;;;;;6.33;1.40;;;;;;;;;;5037862;28;20087;-61
2023/03/14 13:44:08;;;;;;;7.57;1.23;;;;;;;;;;5040094;28;20041;-61
2023/03/14 13:46:35;;;;;;;8.23;1.20;;;;;;;;;;5037396;28;20102;-61
2023/03/14 13:49:03;;;;;;;4.63;1.00;;;;;;;;;;5037166;28;20542;-61
2023/03/14 13:51:31;;;;;;;6.93;1.53;;;;;;;;;;5039746;28;20053;-61
2023/03/14 13:53:58;;;;;;;7.37;1.40;;;;;;;;;;5037232;28;20049;-61
2023/03/14 13:56:29;;;;;;;4.73;1.37;;;;;;;;;;5036313;28;20041;-61
2023/03/14 13:58:55;;;;;;;7.73;1.50;;;;;;;;;;5039487;28;20052;-61
2023/03/14 14:01:24;;;;;;;8.17;1.73;;;;;;;;;;5038275;28;20052;-61
2023/03/14 14:03:52;;;;;;;7.73;1.73;;;;;;;;;;5034707;28;20559;-60
2023/03/14 14:06:29;;;;;;;5.10;1.53;;;;;;;;;;5037486;28;20478;-60
2023/03/14 14:08:56;;;;;;;5.50;1.47;;;;;;;;;;5039771;28;20047;-60
2023/03/14 14:11:35;;;;;;;7.53;1.20;;;;;;;;;;5040104;28;20037;-60
2023/03/14 14:14:01;;;;;;;10.73;1.57;;;;;;;;;;5039464;28;20431;-60
2023/03/14 14:16:28;;;;;;;8.83;1.90;;;;;;;;;;5036112;28;20033;-61
2023/03/14 14:18:55;;;;;;;5.70;1.60;;;;;;;;;;5036125;28;20048;-61
2023/03/14 14:21:22;;;;;;;6.07;1.47;;;;;;;;;;5039875;28;20045;-61
2023/03/14 14:23:48;;;;;;;9.73;1.60;;;;;;;;;;5037896;28;20033;-60
2023/03/14 14:26:17;;;;;;;7.33;1.23;;;;;;;;;;5038054;28;20049;-60
2023/03/14 14:28:43;;;;;;;7.60;1.90;;;;;;;;;;5037056;28;20081;-60
2023/03/14 14:31:15;;;;;;;3.80;1.03;;;;;;;;;;5041567;28;20095;-60
2023/03/14 14:33:45;;;;;;;8.37;1.30;;;;;;;;;;5039415;28;20047;-61
2023/03/14 14:36:30;;;;;;;7.23;1.50;;;;;;;;;;5038723;28;20052;-60
2023/03/14 14:39:05;;;;;;;9.13;1.70;;;;;;;;;;5041652;28;20037;-61